createdAt,value
2019-06-01T00:07:10.417Z,22.27
2019-06-01T00:13:01.095Z,20.62
2019-06-01T00:18:36.123Z,18.87
2019-06-01T00:25:04.422Z,17.92
2019-06-01T01:31:14.572Z,19.92
2019-06-01T01:34:03.104Z,18.10
2019-06-01T01:37:14.031Z,17.25
2019-06-01T01:39:33.435Z,16.93
2019-06-01T01:42:02.329Z,18.80
2019-06-01T01:44:35.846Z,17.87
2019-06-01T01:47:03.926Z,17.85
2019-06-01T01:49:44.819Z,17.65
2019-06-01T01:52:25.351Z,18.85
2019-06-01T01:55:03.264Z,19.15
2019-06-01T01:57:55.585Z,17.50
2019-06-01T02:00:33.382Z,18.52
2019-06-01T02:03:03.399Z,18.50
2019-06-01T02:05:56.998Z,17.73
2019-06-01T02:08:33.074Z,19.42
2019-06-01T02:15:00.526Z,17.82
2019-06-01T02:17:32.682Z,45.25
2019-06-01T02:20:02.630Z,19.23
2019-06-01T02:22:38.328Z,18.80
2019-06-01T02:31:04.466Z,19.57
2019-06-01T02:33:39.870Z,19.77
2019-06-01T02:36:13.044Z,20.12
2019-06-01T02:38:56.510Z,20.02
2019-06-01T02:41:54.854Z,20.05
2019-06-01T02:50:22.976Z,18.60
2019-06-01T02:53:29.391Z,20.27
2019-06-01T02:56:13.175Z,21.45
2019-06-01T02:58:50.012Z,22.07
2019-06-01T03:01:34.876Z,22.00
2019-06-01T03:04:18.091Z,19.32
2019-06-01T03:07:16.537Z,22.27
2019-06-01T03:10:05.308Z,23.38
2019-06-01T03:12:35.546Z,20.92
2019-06-01T03:15:15.043Z,19.92
2019-06-01T03:17:57.185Z,18.87
2019-06-01T03:20:41.492Z,19.15
2019-06-01T03:23:15.660Z,17.23
2019-06-01T03:26:40.242Z,17.60
2019-06-01T03:37:47.867Z,22.05
2019-06-01T03:40:31.301Z,22.20
2019-06-01T03:46:21.074Z,24.20
2019-06-01T03:52:08.890Z,25.35
2019-06-01T03:54:59.211Z,25.97
2019-06-01T04:13:40.458Z,26.37
2019-06-01T04:28:56.422Z,26.62
2019-06-01T05:01:57.787Z,22.70
2019-06-01T05:08:15.599Z,20.10
2019-06-01T05:28:36.080Z,16.12
2019-06-01T05:30:09.459Z,17.98
2019-06-01T06:11:01.569Z,15.98
2019-06-01T06:53:37.134Z,10.82
2019-06-01T07:07:19.915Z,10.82
2019-06-01T08:27:00.739Z,10.25
2019-06-01T08:29:56.224Z,11.05
2019-06-01T08:33:08.868Z,12.37
2019-06-01T08:35:59.364Z,11.80
2019-06-01T08:38:45.300Z,8.23
2019-06-01T08:41:40.298Z,12.23
2019-06-01T08:44:16.553Z,9.48
2019-06-01T08:47:32.023Z,10.38
2019-06-01T08:50:02.751Z,11.68
2019-06-01T08:59:42.855Z,13.03
2019-06-01T09:17:41.709Z,10.32
2019-06-01T09:25:21.975Z,8.93
2019-06-01T09:27:51.661Z,10.25
2019-06-01T09:41:07.593Z,9.00
2019-06-01T09:47:45.570Z,10.68
2019-06-01T09:49:21.907Z,8.68
2019-06-01T09:55:51.500Z,13.72
2019-06-01T10:09:09.095Z,21.95
2019-06-01T10:15:09.622Z,10.25
2019-06-01T10:17:44.376Z,8.95
2019-06-01T10:20:16.436Z,11.35
2019-06-01T10:22:48.648Z,11.80
2019-06-01T10:25:23.969Z,13.05
2019-06-01T10:27:55.889Z,12.78
2019-06-01T10:30:37.933Z,11.05
2019-06-01T10:33:00.723Z,9.05
2019-06-01T10:35:30.668Z,9.25
2019-06-01T10:38:01.545Z,7.80
2019-06-01T10:40:33.399Z,10.50
2019-06-01T10:43:03.925Z,10.20
2019-06-01T10:45:33.565Z,11.18
2019-06-01T10:48:02.342Z,9.65
2019-06-01T10:50:34.876Z,9.95
2019-06-01T10:53:05.112Z,8.58
2019-06-01T10:55:34.110Z,7.30
2019-06-01T10:58:04.466Z,10.53
2019-06-01T11:00:43.582Z,9.80
2019-06-01T11:03:08.442Z,7.80
2019-06-01T11:05:37.145Z,9.75
2019-06-01T11:08:05.785Z,8.75
2019-06-01T11:10:38.927Z,8.95
2019-06-01T11:13:08.415Z,9.23
2019-06-01T11:15:41.240Z,8.23
2019-06-01T11:18:39.643Z,37.55
2019-06-01T11:20:53.736Z,10.88
2019-06-01T11:23:24.023Z,9.35
2019-06-01T11:25:55.625Z,5.20
2019-06-01T11:28:27.347Z,4.92
2019-06-01T11:30:58.387Z,7.67
2019-06-01T11:33:28.076Z,8.03
2019-06-01T11:35:59.471Z,8.15
2019-06-01T11:38:31.164Z,6.30
2019-06-01T11:41:01.410Z,8.23
2019-06-01T11:43:30.481Z,5.50
2019-06-01T11:46:01.772Z,9.23
2019-06-01T11:48:35.119Z,9.30
2019-06-01T11:51:09.290Z,6.58
2019-06-01T11:53:43.344Z,4.80
2019-06-01T11:56:29.691Z,9.58
2019-06-01T11:59:03.188Z,6.33
2019-06-01T12:01:35.600Z,6.47
2019-06-01T12:04:12.518Z,6.35
2019-06-01T12:06:51.742Z,6.83
2019-06-01T12:09:26.667Z,6.45
2019-06-01T12:12:10.722Z,7.47
2019-06-01T12:14:46.713Z,6.62
2019-06-01T12:17:23.600Z,6.58
2019-06-01T12:20:08.380Z,4.75
2019-06-01T12:23:00.418Z,10.43
2019-06-01T12:25:46.265Z,8.10
2019-06-01T12:28:44.025Z,6.17
2019-06-01T12:31:11.662Z,7.55
2019-06-01T12:33:48.666Z,8.38
2019-06-01T12:36:30.793Z,4.90
2019-06-01T12:39:00.533Z,7.33
2019-06-01T12:41:31.010Z,9.48
2019-06-01T12:44:20.518Z,9.28
2019-06-01T12:46:58.047Z,10.08
2019-06-01T12:49:30.014Z,6.42
2019-06-01T12:52:06.649Z,6.78
2019-06-01T12:57:35.192Z,6.80
2019-06-01T13:00:10.613Z,6.10
2019-06-01T13:02:46.351Z,17.60
2019-06-01T13:05:13.837Z,13.20
2019-06-01T13:08:01.839Z,13.00
2019-06-01T13:10:29.439Z,8.45
2019-06-01T13:12:58.211Z,5.78
2019-06-01T13:15:28.305Z,6.65
2019-06-01T13:17:56.871Z,6.75
2019-06-01T13:20:25.438Z,7.45
2019-06-01T13:22:54.983Z,4.95
2019-06-01T13:25:23.614Z,6.45
2019-06-01T13:27:52.571Z,6.37
2019-06-01T13:30:27.074Z,6.62
2019-06-01T13:32:58.467Z,7.05
2019-06-01T13:42:27.541Z,7.08
2019-06-01T13:45:08.070Z,8.50
2019-06-01T13:47:36.670Z,5.55
2019-06-01T13:53:10.299Z,9.70
2019-06-01T13:55:38.892Z,8.80
2019-06-01T14:01:27.858Z,13.72
2019-06-01T14:03:56.852Z,9.38
2019-06-01T14:06:25.458Z,7.85
2019-06-01T14:08:57.192Z,12.98
2019-06-01T14:11:25.770Z,11.22
2019-06-01T14:13:57.026Z,9.73
2019-06-01T14:16:32.435Z,10.82
2019-06-01T14:25:18.523Z,7.60
2019-06-01T14:28:43.639Z,13.30
2019-06-01T14:31:10.828Z,9.68
2019-06-01T14:40:11.922Z,13.35
2019-06-01T14:43:00.756Z,10.38
2019-06-01T14:48:33.987Z,9.60
2019-06-01T15:11:37.621Z,8.75
2019-06-01T15:20:20.342Z,7.47
2019-06-01T15:46:29.927Z,7.25
2019-06-01T15:56:08.163Z,9.33
2019-06-01T16:04:01.639Z,5.83
2019-06-01T16:14:30.122Z,10.15
2019-06-01T16:20:27.682Z,6.65
2019-06-01T16:26:24.892Z,10.88
2019-06-01T16:32:25.285Z,10.18
2019-06-01T16:38:35.041Z,11.75
2019-06-01T16:44:11.283Z,12.35
2019-06-01T16:46:41.415Z,7.75
2019-06-01T16:49:13.391Z,12.03
2019-06-01T16:51:59.060Z,10.23
2019-06-01T16:54:30.183Z,4.78
2019-06-01T16:57:05.361Z,7.65
2019-06-01T16:59:30.589Z,7.85
2019-06-01T17:02:00.837Z,6.72
2019-06-01T17:04:29.678Z,6.90
2019-06-01T17:06:58.676Z,9.58
2019-06-01T17:09:29.489Z,6.42
2019-06-01T17:12:01.043Z,5.40
2019-06-01T17:14:30.372Z,9.18
2019-06-01T17:17:23.111Z,8.35
2019-06-01T17:32:32.226Z,11.03
2019-06-01T17:35:18.835Z,15.25
2019-06-01T17:40:38.416Z,10.05
2019-06-01T17:43:10.382Z,8.48
2019-06-01T17:45:40.999Z,14.25
2019-06-01T17:48:26.590Z,10.50
2019-06-01T17:50:50.111Z,12.80
2019-06-01T17:53:20.341Z,13.22
2019-06-01T17:55:49.043Z,13.62
2019-06-01T17:58:19.697Z,10.20
2019-06-01T18:00:48.582Z,9.68
2019-06-01T18:03:18.978Z,10.82
2019-06-01T18:05:53.789Z,8.60
2019-06-01T18:08:49.906Z,9.83
2019-06-01T18:23:21.597Z,13.00
2019-06-01T18:31:33.804Z,12.10
2019-06-01T18:40:27.688Z,11.05
2019-06-01T18:43:03.639Z,12.43
2019-06-01T18:45:37.240Z,7.92
2019-06-01T18:48:08.368Z,6.22
2019-06-01T18:50:46.298Z,7.08
2019-06-01T18:53:22.697Z,9.40
2019-06-01T18:55:52.818Z,8.40
2019-06-01T18:58:22.896Z,10.72
2019-06-01T19:00:51.329Z,8.25
2019-06-01T19:03:19.783Z,8.13
2019-06-01T19:05:48.383Z,9.35
2019-06-01T19:08:17.894Z,8.03
2019-06-01T19:10:46.982Z,7.33
2019-06-01T19:13:16.627Z,7.95
2019-06-01T19:15:45.290Z,10.20
2019-06-01T19:18:14.592Z,8.25
2019-06-01T19:20:44.417Z,7.00
2019-06-01T19:23:13.042Z,5.67
2019-06-01T19:25:47.749Z,5.75
2019-06-01T19:28:17.518Z,4.37
2019-06-01T19:30:46.357Z,3.20
2019-06-01T19:33:18.968Z,10.08
2019-06-01T19:35:48.752Z,5.83
2019-06-01T19:41:57.932Z,6.87
2019-06-01T19:48:08.226Z,7.17
2019-06-01T19:54:19.932Z,9.60
2019-06-01T19:56:50.379Z,6.12
2019-06-01T19:59:19.595Z,6.35
2019-06-01T20:01:49.167Z,9.48
2019-06-01T20:04:20.325Z,6.78
2019-06-01T20:09:40.249Z,9.63
2019-06-01T20:12:16.620Z,8.75
2019-06-01T20:17:34.519Z,7.10
2019-06-01T20:20:10.742Z,11.73
2019-06-01T20:22:46.438Z,14.47
2019-06-01T20:25:19.603Z,9.08
2019-06-01T20:27:56.200Z,11.63
2019-06-01T20:33:56.341Z,15.43
2019-06-01T20:36:30.229Z,42.83
2019-06-01T20:39:08.181Z,14.47
2019-06-01T20:41:41.799Z,17.12
2019-06-01T20:44:24.342Z,12.20
2019-06-01T20:47:01.796Z,14.63
2019-06-01T20:49:33.328Z,15.30
2019-06-01T21:01:29.948Z,9.98
2019-06-01T21:07:40.033Z,11.05
2019-06-01T21:13:53.980Z,10.93
2019-06-01T21:26:38.867Z,13.13
2019-06-01T21:36:19.457Z,16.57
2019-06-01T21:41:54.979Z,13.18
2019-06-01T21:47:56.358Z,11.40
2019-06-01T21:56:44.389Z,14.45
2019-06-01T21:59:31.073Z,11.33
2019-06-01T22:02:03.611Z,8.68
2019-06-01T22:04:45.682Z,8.83
2019-06-01T22:19:21.602Z,9.60
2019-06-01T22:54:56.510Z,18.17
2019-06-01T23:03:16.252Z,14.93
2019-06-01T23:05:44.808Z,14.28
2019-06-01T23:08:14.522Z,14.10
2019-06-01T23:10:44.985Z,15.20
2019-06-01T23:13:14.499Z,14.60
2019-06-01T23:15:43.306Z,13.08
2019-06-01T23:18:12.872Z,13.15
2019-06-01T23:20:41.454Z,13.10
2019-06-01T23:23:11.119Z,14.18
2019-06-01T23:25:40.188Z,13.70
2019-06-01T23:28:08.755Z,13.08
2019-06-01T23:30:38.358Z,15.35
2019-06-01T23:33:07.072Z,13.65
2019-06-01T23:35:35.807Z,14.53
2019-06-01T23:38:04.350Z,16.35
2019-06-01T23:40:33.006Z,17.48
2019-06-01T23:43:02.633Z,15.78
2019-06-01T23:45:32.971Z,14.58
2019-06-01T23:51:30.287Z,14.45
2019-06-01T23:57:16.360Z,17.60
